Time;durP1;ratioP1;P1;durP2;ratioP2;P2;SDS_P1;SDS_P2;PMS_P1;PMS_P2;Temp;Humidity;BMP_temperature;BMP_pressure;BME280_temperature;BME280_humidity;BME280_pressure;Samples;Min_cycle;Max_cycle;Signal;HPM_P1;HPM_P2
2022/07/03 00:00:35;;;;;;;0.00;0.00;;;;;;;18.08;57.34;101171.22;7363437;19;20010;-60
2022/07/03 00:03:00;;;;;;;0.10;0.10;;;;;;;18.00;57.56;101160.16;7358808;19;20026;-61
2022/07/03 00:05:26;;;;;;;0.00;0.00;;;;;;;17.95;58.19;101167.44;7360958;19;20019;-60
2022/07/03 00:07:51;;;;;;;0.00;0.00;;;;;;;17.87;58.37;101166.00;7367288;19;20352;-62
2022/07/03 00:10:16;;;;;;;0.08;0.08;;;;;;;17.83;58.53;101172.34;7368727;19;20473;-60
2022/07/03 00:12:42;;;;;;;0.00;0.00;;;;;;;17.79;58.61;101173.44;7367539;19;20022;-61
2022/07/03 00:15:08;;;;;;;0.00;0.00;;;;;;;17.74;59.05;101183.34;7368263;19;20552;-62
2022/07/03 00:17:34;;;;;;;0.00;0.00;;;;;;;17.72;58.67;101181.66;7366129;19;20828;-60
2022/07/03 00:19:59;;;;;;;0.00;0.00;;;;;;;17.62;58.60;101175.91;7367277;19;20078;-61
2022/07/03 00:22:25;;;;;;;0.00;0.00;;;;;;;17.63;58.61;101189.03;7365848;19;20037;-60
2022/07/03 00:24:53;;;;;;;0.00;0.00;;;;;;;17.61;58.97;101179.47;7368331;19;20568;-62
2022/07/03 00:27:21;;;;;;;0.10;0.10;;;;;;;17.59;58.64;101176.06;7367135;19;20021;-61
2022/07/03 00:29:49;;;;;;;0.00;0.00;;;;;;;17.55;58.49;101183.25;7367437;19;20506;-61
2022/07/03 00:32:22;;;;;;;0.00;0.00;;;;;;;17.54;58.22;101188.63;7367950;19;20015;-61
2022/07/03 00:34:51;;;;;;;0.10;0.10;;;;;;;17.49;58.66;101185.31;7367008;19;20855;-61
2022/07/03 00:37:16;;;;;;;0.08;0.08;;;;;;;17.45;58.83;101189.00;7365183;19;20011;-61
2022/07/03 00:39:43;;;;;;;0.00;0.00;;;;;;;17.41;58.51;101187.41;7369337;19;20010;-61
2022/07/03 00:42:10;;;;;;;0.00;0.00;;;;;;;17.37;59.03;101187.53;7365745;19;20017;-61
2022/07/03 00:44:45;;;;;;;0.05;0.05;;;;;;;17.36;58.19;101191.13;7369565;19;20111;-60
2022/07/03 00:47:12;;;;;;;0.00;0.00;;;;;;;17.30;59.04;101196.66;7366986;19;20017;-60
2022/07/03 00:49:39;;;;;;;0.00;0.00;;;;;;;17.28;59.05;101192.34;7367146;19;20026;-61
2022/07/03 00:52:05;;;;;;;0.10;0.10;;;;;;;17.26;59.70;101194.22;7367162;19;20010;-61
2022/07/03 00:54:35;;;;;;;0.10;0.10;;;;;;;17.25;59.26;101203.91;7368353;19;20017;-61
2022/07/03 00:57:02;;;;;;;0.10;0.10;;;;;;;17.22;59.07;101193.47;7365779;19;20010;-60
2022/07/03 00:59:28;;;;;;;;;;;;;;;17.23;58.10;101195.19;7369661;19;20366;-60
2022/07/03 01:02:02;;;;;;;0.00;0.00;;;;;;;17.19;59.04;101198.91;7363620;19;19982;-60
2022/07/03 01:04:46;;;;;;;0.00;0.00;;;;;;;17.15;59.08;101197.31;7366687;19;20014;-60
2022/07/03 01:07:25;;;;;;;0.00;0.00;;;;;;;17.12;58.98;101202.72;7363907;19;20035;-60
2022/07/03 01:10:12;;;;;;;0.00;0.00;;;;;;;17.07;59.68;101199.41;7366835;19;20033;-59
2022/07/03 01:13:08;;;;;;;0.00;0.00;;;;;;;17.03;58.99;101198.69;7367981;19;20452;-61
2022/07/03 01:16:16;;;;;;;0.00;0.00;;;;;;;17.00;58.98;101203.22;7263548;19;2004880;-60
2022/07/03 01:18:53;;;;;;;0.00;0.00;;;;;;;16.95;59.68;101197.28;7261918;19;2004421;-60
2022/07/03 01:21:34;;;;;;;0.00;0.00;;;;;;;16.93;59.48;101201.75;7365675;19;20014;-61
2022/07/03 01:24:18;;;;;;;0.00;0.00;;;;;;;16.86;60.15;101196.72;7365635;19;20470;-60
2022/07/03 01:26:47;;;;;;;0.00;0.00;;;;;;;16.83;60.29;101196.88;7365381;19;20466;-60
2022/07/03 01:29:26;;;;;;;0.00;0.00;;;;;;;16.79;59.75;101200.56;7365574;19;20049;-61
2022/07/03 01:31:55;;;;;;;0.00;0.00;;;;;;;16.66;60.56;101188.72;7363572;19;20094;-60
2022/07/03 01:34:25;;;;;;;0.00;0.00;;;;;;;16.65;60.87;101202.84;7365444;19;20017;-58
2022/07/03 01:36:57;;;;;;;0.00;0.00;;;;;;;16.60;60.66;101210.06;7365426;19;20030;-61
2022/07/03 01:39:26;;;;;;;0.00;0.00;;;;;;;16.53;60.80;101211.25;7365085;19;20011;-60
2022/07/03 01:41:53;;;;;;;0.00;0.00;;;;;;;16.35;60.73;101194.38;7365807;19;20014;-60
2022/07/03 01:44:21;;;;;;;0.00;0.00;;;;;;;16.39;61.33;101210.91;7367963;19;20112;-61
2022/07/03 01:46:47;;;;;;;0.00;0.00;;;;;;;16.30;61.14;101202.44;7368677;19;20094;-60
2022/07/03 01:49:16;;;;;;;0.00;0.00;;;;;;;16.26;61.12;101211.38;7365415;19;20086;-60
2022/07/03 01:51:42;;;;;;;0.00;0.00;;;;;;;16.17;61.42;101211.75;7365771;19;20323;-60
2022/07/03 01:54:10;;;;;;;0.00;0.00;;;;;;;16.13;61.80;101210.13;7366084;19;20022;-59
2022/07/03 01:56:35;;;;;;;0.00;0.00;;;;;;;16.05;61.83;101215.69;7364235;19;20025;-60
2022/07/03 01:59:02;;;;;;;0.00;0.00;;;;;;;15.98;61.96;101215.97;7357154;19;20010;-61
2022/07/03 02:01:51;;;;;;;0.00;0.00;;;;;;;15.96;60.66;101223.91;7364796;19;20014;-60
2022/07/03 02:04:28;;;;;;;0.03;0.03;;;;;;;15.89;62.15;101219.81;7364943;19;20014;-60
2022/07/03 02:07:02;;;;;;;0.00;0.00;;;;;;;15.82;61.97;101227.06;7363052;19;20785;-60
2022/07/03 02:09:58;;;;;;;0.00;0.00;;;;;;;15.76;61.89;101227.31;7360876;19;20727;-61
2022/07/03 02:12:31;;;;;;;0.03;0.03;;;;;;;15.71;61.85;101223.09;7261376;19;2004438;-54
2022/07/03 02:15:08;;;;;;;0.10;0.10;;;;;;;15.64;61.58;101222.44;7362871;19;20529;-60
2022/07/03 02:17:43;;;;;;;0.00;0.00;;;;;;;15.59;62.54;101224.34;7363361;19;20007;-58
2022/07/03 02:20:09;;;;;;;0.00;0.00;;;;;;;15.53;62.36;101230.69;7364119;19;20010;-60
2022/07/03 02:22:42;;;;;;;0.00;0.00;;;;;;;15.49;62.18;101225.59;7365288;19;20489;-60
2022/07/03 02:25:15;;;;;;;0.00;0.00;;;;;;;15.45;62.93;101232.72;7362884;19;20739;-60
2022/07/03 02:27:50;;;;;;;0.00;0.00;;;;;;;15.42;62.48;101229.34;7360272;19;20007;-60
2022/07/03 02:30:16;;;;;;;0.00;0.00;;;;;;;15.35;62.91;101228.69;7361115;19;20013;-60
2022/07/03 02:32:50;;;;;;;0.00;0.00;;;;;;;15.32;62.09;101229.66;7364476;19;20413;-59
2022/07/03 02:35:35;;;;;;;0.00;0.00;;;;;;;15.28;61.45;101230.69;7362298;19;20082;-61
2022/07/03 02:38:09;;;;;;;0.00;0.00;;;;;;;15.23;62.61;101222.06;7360936;19;20013;-61
2022/07/03 02:41:15;;;;;;;0.00;0.00;;;;;;;15.18;61.66;101231.91;7364863;19;20010;-61
2022/07/03 02:43:59;;;;;;;0.03;0.03;;;;;;;15.15;62.53;101233.75;7256424;19;2004277;-61
2022/07/03 02:49:27;;;;;;;0.00;0.00;;;;;;;15.08;62.36;101233.13;7359960;19;20742;-60
2022/07/03 02:52:25;;;;;;;0.08;0.08;;;;;;;15.03;61.81;101232.41;7364376;19;20003;-60
2022/07/03 02:54:52;;;;;;;0.00;0.00;;;;;;;14.97;63.47;101225.56;7257461;19;2005588;-61
2022/07/03 02:57:19;;;;;;;0.00;0.00;;;;;;;14.95;63.63;101231.78;7364902;19;20788;-60
2022/07/03 03:00:02;;;;;;;0.00;0.00;;;;;;;14.93;62.57;101233.63;7359337;19;20784;-61
2022/07/03 03:02:45;;;;;;;0.00;0.00;;;;;;;14.91;62.87;101230.19;7363372;19;20017;-61
2022/07/03 03:05:29;;;;;;;0.00;0.00;;;;;;;14.86;62.88;101234.72;7350822;19;20011;-61
2022/07/03 03:08:11;;;;;;;0.00;0.00;;;;;;;14.84;62.50;101239.16;7359743;19;20759;-61
2022/07/03 03:10:38;;;;;;;0.00;0.00;;;;;;;14.79;63.59;101234.03;7363586;19;20037;-61
2022/07/03 03:13:10;;;;;;;0.08;0.08;;;;;;;14.65;63.73;101213.47;7361750;19;20022;-61
2022/07/03 03:15:36;;;;;;;0.00;0.00;;;;;;;14.76;63.98;101239.41;7363002;19;20174;-61
2022/07/03 03:18:11;;;;;;;0.00;0.00;;;;;;;14.75;63.33;101241.19;7363011;19;20022;-58
2022/07/03 03:20:38;;;;;;;0.00;0.00;;;;;;;14.72;63.99;101245.66;7352967;19;20022;-60
2022/07/03 03:23:41;;;;;;;0.00;0.00;;;;;;;14.71;62.86;101242.19;7360474;19;20109;-60
2022/07/03 03:26:06;;;;;;;0.00;0.00;;;;;;;14.64;64.08;101232.75;7261119;19;2004138;-60
2022/07/03 03:28:33;;;;;;;0.00;0.00;;;;;;;14.64;64.67;101238.00;7362679;19;20019;-61
2022/07/03 03:30:58;;;;;;;0.00;0.00;;;;;;;14.63;64.42;101235.44;7363331;19;20845;-61
2022/07/03 03:33:24;;;;;;;0.00;0.00;;;;;;;14.54;64.60;101232.16;7363753;19;20017;-60
2022/07/03 03:35:49;;;;;;;0.00;0.00;;;;;;;14.62;64.80;101239.84;7361861;19;20021;-60
2022/07/03 03:38:16;;;;;;;0.00;0.00;;;;;;;14.62;64.37;101229.31;7362384;19;20106;-60
2022/07/03 03:40:44;;;;;;;0.00;0.00;;;;;;;14.65;64.86;101233.59;7363976;19;20010;-61
2022/07/03 03:43:09;;;;;;;0.08;0.08;;;;;;;14.65;64.73;101229.25;7367867;19;20497;-59
2022/07/03 03:45:34;;;;;;;0.05;0.05;;;;;;;14.65;64.97;101223.97;7368614;19;20011;-58
2022/07/03 03:48:00;;;;;;;0.00;0.00;;;;;;;14.66;64.61;101228.31;7367350;19;20026;-56
2022/07/03 03:50:26;;;;;;;0.00;0.00;;;;;;;14.66;64.83;101230.94;7369839;19;20494;-61
2022/07/03 03:52:51;;;;;;;0.00;0.00;;;;;;;14.66;64.49;101236.22;7366751;19;20022;-59
2022/07/03 03:55:18;;;;;;;0.00;0.00;;;;;;;14.63;64.95;101231.03;7369883;19;20023;-61
2022/07/03 03:57:43;;;;;;;0.00;0.00;;;;;;;14.68;64.94;101234.38;7368214;19;20010;-60
2022/07/03 04:00:09;;;;;;;0.00;0.00;;;;;;;14.69;64.61;101236.09;7367304;19;20011;-61
2022/07/03 04:02:35;;;;;;;0.00;0.00;;;;;;;14.66;64.98;101236.22;7370201;19;22097;-60
2022/07/03 04:05:00;;;;;;;0.00;0.00;;;;;;;14.65;64.59;101231.88;7369296;19;20014;-60
2022/07/03 04:07:26;;;;;;;0.00;0.00;;;;;;;14.56;64.18;101226.03;7367999;19;20017;-60
2022/07/03 04:09:51;;;;;;;0.00;0.00;;;;;;;14.63;63.95;101233.66;7368773;19;20623;-60
2022/07/03 04:12:16;;;;;;;0.00;0.00;;;;;;;14.61;63.49;101238.13;7367643;19;20014;-61
2022/07/03 04:14:42;;;;;;;0.00;0.00;;;;;;;14.53;64.32;101237.47;7368543;19;20011;-61
2022/07/03 04:17:07;;;;;;;0.00;0.00;;;;;;;14.56;63.66;101241.81;7368719;19;20007;-60
2022/07/03 04:19:33;;;;;;;0.00;0.00;;;;;;;14.52;64.02;101243.66;7368852;19;20017;-61
2022/07/03 04:21:59;;;;;;;0.00;0.00;;;;;;;14.48;63.81;101236.75;7366498;19;20480;-61
2022/07/03 04:24:24;;;;;;;0.00;0.00;;;;;;;14.45;63.72;101242.09;7364386;19;20466;-61
2022/07/03 04:26:49;;;;;;;0.00;0.00;;;;;;;14.40;63.52;101244.00;7368476;19;20014;-61
2022/07/03 04:29:15;;;;;;;0.05;0.05;;;;;;;14.33;63.79;101245.06;7364856;19;20107;-58
2022/07/03 04:31:41;;;;;;;0.00;0.00;;;;;;;14.32;63.94;101251.25;7368342;19;20744;-60
2022/07/03 04:34:06;;;;;;;0.00;0.00;;;;;;;14.28;63.85;101251.31;7365240;19;20081;-60
2022/07/03 04:36:32;;;;;;;0.00;0.00;;;;;;;14.12;64.00;101234.28;7367346;19;20032;-59
2022/07/03 04:38:57;;;;;;;0.00;0.00;;;;;;;14.11;63.83;101243.06;7368217;19;20013;-61
2022/07/03 04:41:23;;;;;;;0.00;0.00;;;;;;;14.19;64.22;101254.22;7368556;19;20021;-60
2022/07/03 04:43:48;;;;;;;0.05;0.05;;;;;;;14.17;64.21;101258.66;7364239;19;20077;-61
2022/07/03 04:46:14;;;;;;;0.00;0.00;;;;;;;14.14;64.65;101258.75;7368430;19;20010;-60
2022/07/03 04:48:39;;;;;;;0.00;0.00;;;;;;;14.13;64.81;101257.00;7365746;19;20013;-60
2022/07/03 04:51:05;;;;;;;0.00;0.00;;;;;;;14.11;64.77;101266.72;7368270;19;20010;-59
2022/07/03 04:53:30;;;;;;;0.00;0.00;;;;;;;14.11;64.46;101269.34;7365723;19;20599;-60
2022/07/03 04:55:55;;;;;;;0.00;0.00;;;;;;;14.10;64.65;101272.88;7366895;19;20021;-61
2022/07/03 04:58:21;;;;;;;0.00;0.00;;;;;;;14.09;64.63;101275.53;7368042;19;20006;-61
2022/07/03 05:00:46;;;;;;;0.00;0.00;;;;;;;14.09;64.66;101280.78;7367325;19;20006;-60
2022/07/03 05:03:12;;;;;;;0.00;0.00;;;;;;;14.06;64.72;101275.63;7367519;19;20019;-59
2022/07/03 05:05:38;;;;;;;0.00;0.00;;;;;;;14.00;64.56;101272.28;7367038;19;20466;-60
2022/07/03 05:08:04;;;;;;;0.00;0.00;;;;;;;14.04;64.89;101283.56;7365096;19;20037;-60
2022/07/03 05:10:30;;;;;;;0.00;0.00;;;;;;;14.02;65.40;101278.31;7366857;19;20462;-61
2022/07/03 05:12:55;;;;;;;0.00;0.00;;;;;;;14.01;65.32;101286.25;7366976;19;20003;-60
2022/07/03 05:15:20;;;;;;;0.00;0.00;;;;;;;14.00;65.66;101287.16;7366440;19;20090;-60
2022/07/03 05:17:46;;;;;;;0.00;0.00;;;;;;;13.95;65.37;101283.81;7365873;19;20018;-60
2022/07/03 05:20:24;;;;;;;0.00;0.00;;;;;;;14.00;65.89;101292.41;7367397;19;20014;-60
2022/07/03 05:22:53;;;;;;;0.00;0.00;;;;;;;14.03;65.85;101297.56;7362768;19;20037;-60
2022/07/03 05:25:19;;;;;;;0.00;0.00;;;;;;;14.03;65.97;101295.78;7367140;19;20014;-61
2022/07/03 05:27:45;;;;;;;0.00;0.00;;;;;;;14.06;65.92;101294.00;7365207;19;20002;-61
2022/07/03 05:30:11;;;;;;;0.00;0.00;;;;;;;14.01;66.22;101284.50;7367499;19;20014;-60
2022/07/03 05:32:37;;;;;;;0.00;0.00;;;;;;;14.11;65.96;101290.34;7366723;19;20002;-61
2022/07/03 05:35:03;;;;;;;0.00;0.00;;;;;;;14.06;66.07;101281.75;7367332;19;20082;-60
2022/07/03 05:37:29;;;;;;;0.00;0.00;;;;;;;14.09;65.71;101286.91;7364572;19;20588;-59
2022/07/03 05:39:54;;;;;;;0.10;0.10;;;;;;;14.18;65.70;101299.75;7366923;19;20003;-60
2022/07/03 05:42:20;;;;;;;0.00;0.00;;;;;;;14.20;65.91;101305.84;7367042;19;20022;-60
2022/07/03 05:44:45;;;;;;;0.00;0.00;;;;;;;14.22;65.95;101304.03;7367121;19;20018;-59
2022/07/03 05:47:11;;;;;;;0.00;0.00;;;;;;;14.24;66.37;101299.63;7367161;19;20021;-60
2022/07/03 05:49:36;;;;;;;0.00;0.00;;;;;;;14.27;65.83;101302.13;7364687;19;20022;-61
2022/07/03 05:52:02;;;;;;;0.10;0.10;;;;;;;14.19;66.35;101293.63;7366914;19;20014;-60
2022/07/03 05:54:27;;;;;;;0.00;0.00;;;;;;;14.34;65.85;101312.47;7364922;19;20041;-59
2022/07/03 05:56:52;;;;;;;0.05;0.05;;;;;;;14.37;66.01;101310.63;7365881;19;20006;-60
2022/07/03 05:59:18;;;;;;;0.00;0.00;;;;;;;14.44;66.07;101313.94;7360599;19;20014;-61
2022/07/03 06:01:43;;;;;;;0.00;0.00;;;;;;;14.50;66.14;101327.81;7366094;19;20037;-60
2022/07/03 06:04:09;;;;;;;0.00;0.00;;;;;;;14.58;66.18;101327.56;7365381;19;20018;-60
2022/07/03 06:06:34;;;;;;;0.00;0.00;;;;;;;14.64;65.71;101337.91;7365975;19;20010;-61
2022/07/03 06:09:00;;;;;;;0.00;0.00;;;;;;;14.70;66.22;101336.84;7361790;19;20006;-60
2022/07/03 06:11:25;;;;;;;0.00;0.00;;;;;;;14.76;65.82;101334.91;7366424;19;20438;-60
2022/07/03 06:13:50;;;;;;;0.10;0.10;;;;;;;14.85;65.32;101335.53;7361131;19;20025;-59
2022/07/03 06:16:16;;;;;;;0.00;0.00;;;;;;;14.92;64.92;101337.09;7366504;19;20014;-61
2022/07/03 06:18:41;;;;;;;0.00;0.00;;;;;;;14.98;64.76;101343.00;7363324;19;20094;-58
2022/07/03 06:21:07;;;;;;;0.10;0.10;;;;;;;15.02;65.02;101343.78;7363704;19;20010;-61
2022/07/03 06:23:32;;;;;;;0.00;0.00;;;;;;;15.12;64.91;101354.88;7363551;19;20026;-60
2022/07/03 06:25:58;;;;;;;0.00;0.00;;;;;;;15.16;64.24;101357.38;7363485;19;20021;-61
2022/07/03 06:28:23;;;;;;;0.00;0.00;;;;;;;15.21;64.31;101354.59;7364610;19;20380;-59
2022/07/03 06:30:49;;;;;;;0.00;0.00;;;;;;;15.24;63.92;101360.59;7363130;19;20006;-58
2022/07/03 06:33:14;;;;;;;0.00;0.00;;;;;;;15.28;64.50;101361.38;7364807;19;20038;-61
2022/07/03 06:35:40;;;;;;;0.00;0.00;;;;;;;15.31;64.39;101359.53;7364385;19;20694;-60
2022/07/03 06:38:05;;;;;;;0.00;0.00;;;;;;;15.32;63.87;101358.59;7364114;19;20006;-59
2022/07/03 06:40:31;;;;;;;0.00;0.00;;;;;;;15.30;64.03;101355.16;7363779;19;20014;-61
2022/07/03 06:42:57;;;;;;;0.00;0.00;;;;;;;15.40;63.85;101360.13;7363235;19;20744;-60
2022/07/03 06:45:22;;;;;;;0.10;0.10;;;;;;;15.42;63.85;101363.59;7364622;19;20046;-61
2022/07/03 06:47:48;;;;;;;0.00;0.00;;;;;;;15.44;63.71;101367.00;7363758;19;20018;-61
2022/07/03 06:50:13;;;;;;;0.00;0.00;;;;;;;15.46;63.66;101373.06;7363885;19;20648;-60
2022/07/03 06:52:38;;;;;;;0.00;0.00;;;;;;;15.45;63.53;101368.72;7363945;19;20010;-60
2022/07/03 06:55:05;;;;;;;0.00;0.00;;;;;;;15.53;63.32;101377.25;7365216;19;20014;-60
2022/07/03 06:57:30;;;;;;;0.10;0.10;;;;;;;15.55;63.59;101378.91;7362776;19;20018;-60
2022/07/03 06:59:56;;;;;;;0.00;0.00;;;;;;;15.60;63.93;101381.41;7363240;19;20014;-61
2022/07/03 07:02:21;;;;;;;0.00;0.00;;;;;;;15.65;63.58;101387.41;7362874;19;20011;-60
2022/07/03 07:04:47;;;;;;;0.03;0.03;;;;;;;15.73;63.16;101385.38;7361899;19;20025;-61
2022/07/03 07:07:12;;;;;;;0.00;0.00;;;;;;;15.79;63.65;101385.19;7363468;19;20096;-61
2022/07/03 07:09:38;;;;;;;0.00;0.00;;;;;;;15.87;63.33;101391.97;7361503;19;20018;-60
2022/07/03 07:12:04;;;;;;;0.00;0.00;;;;;;;15.87;63.11;101373.53;7361888;19;20010;-60
2022/07/03 07:14:29;;;;;;;0.00;0.00;;;;;;;16.02;62.55;101381.78;7363026;19;20010;-60
2022/07/03 07:16:54;;;;;;;0.00;0.00;;;;;;;16.12;62.66;101387.59;7362287;19;20010;-59
2022/07/03 07:19:20;;;;;;;0.00;0.00;;;;;;;16.18;62.24;101386.53;7362973;19;20778;-61
2022/07/03 07:21:46;;;;;;;0.00;0.00;;;;;;;16.25;62.39;101394.13;7358073;19;20031;-60
2022/07/03 07:24:11;;;;;;;0.10;0.10;;;;;;;16.30;62.45;101404.53;7360741;19;20007;-60
2022/07/03 07:26:37;;;;;;;0.00;0.00;;;;;;;16.32;61.63;101395.66;7363674;19;20036;-61
2022/07/03 07:29:02;;;;;;;0.00;0.00;;;;;;;16.31;62.00;101393.91;7361456;19;21293;-60
2022/07/03 07:31:28;;;;;;;0.00;0.00;;;;;;;16.45;61.56;101400.47;7363768;19;20816;-61
2022/07/03 07:33:53;;;;;;;0.00;0.00;;;;;;;16.50;61.35;101406.44;7356770;19;20022;-58
2022/07/03 07:36:19;;;;;;;0.00;0.00;;;;;;;16.54;61.51;101400.16;7362092;19;20010;-60
2022/07/03 07:38:44;;;;;;;0.00;0.00;;;;;;;16.64;61.30;101398.91;7360523;19;20482;-61
2022/07/03 07:41:10;;;;;;;0.00;0.00;;;;;;;16.73;61.39;101403.88;7358854;19;20138;-61
2022/07/03 07:43:35;;;;;;;0.08;0.08;;;;;;;16.83;61.40;101404.41;7346894;19;20035;-59
2022/07/03 07:46:01;;;;;;;0.00;0.00;;;;;;;16.93;61.05;101407.53;7347694;19;20711;-61
2022/07/03 07:48:26;;;;;;;0.00;0.00;;;;;;;17.02;60.87;101413.31;7357575;19;20038;-57
2022/07/03 07:50:52;;;;;;;0.00;0.00;;;;;;;17.12;60.71;101409.41;7347992;19;20017;-60
2022/07/03 07:53:18;;;;;;;0.00;0.00;;;;;;;17.23;60.43;101411.63;7352494;19;20020;-60
2022/07/03 07:55:43;;;;;;;0.00;0.00;;;;;;;17.33;60.51;101418.25;7351814;19;20020;-59
2022/07/03 07:58:09;;;;;;;0.00;0.00;;;;;;;17.43;60.78;101412.63;7346905;19;20003;-61
2022/07/03 08:00:34;;;;;;;0.05;0.05;;;;;;;17.51;60.46;101410.56;7355600;19;20082;-61
2022/07/03 08:05:44;;;;;;;0.00;0.00;;;;;;;17.76;59.08;101421.00;7347867;19;20033;-59
2022/07/03 08:08:10;;;;;;;0.00;0.00;;;;;;;17.83;59.19;101433.03;7356488;19;20011;-60
2022/07/03 08:10:48;;;;;;;0.00;0.00;;;;;;;17.94;59.23;101430.81;7355354;19;20118;-60
2022/07/03 08:13:18;;;;;;;0.03;0.03;;;;;;;18.00;58.81;101432.34;7351738;19;20497;-60
2022/07/03 08:15:47;;;;;;;0.10;0.10;;;;;;;18.04;58.03;101424.22;7346148;19;20461;-61
2022/07/03 08:18:12;;;;;;;0.00;0.00;;;;;;;18.13;57.45;101433.53;7347318;19;20037;-61
2022/07/03 08:20:38;;;;;;;0.00;0.00;;;;;;;18.15;58.19;101440.50;7349816;19;20010;-61
2022/07/03 08:23:04;;;;;;;0.00;0.00;;;;;;;18.24;58.16;101438.38;7352558;19;20122;-60
2022/07/03 08:25:30;;;;;;;0.00;0.00;;;;;;;18.20;57.40;101424.44;7351172;19;20006;-61
2022/07/03 08:27:56;;;;;;;0.00;0.00;;;;;;;18.34;57.44;101440.53;7361701;19;20499;-60
2022/07/03 08:30:22;;;;;;;0.00;0.00;;;;;;;18.41;57.90;101447.31;7367592;19;20074;-60
2022/07/03 08:32:49;;;;;;;0.00;0.00;;;;;;;18.50;57.04;101450.47;7363643;19;20021;-59
2022/07/03 08:35:15;;;;;;;0.05;0.05;;;;;;;18.56;57.40;101450.22;7361126;19;20027;-61
2022/07/03 08:37:40;;;;;;;0.00;0.00;;;;;;;18.55;57.15;101437.88;7361580;19;20018;-61
2022/07/03 08:40:16;;;;;;;0.00;0.00;;;;;;;18.70;57.18;101445.19;7366635;19;20044;-61
2022/07/03 08:42:57;;;;;;;0.10;0.10;;;;;;;18.75;57.53;101450.25;7366617;19;20007;-60
2022/07/03 08:45:23;;;;;;;0.00;0.00;;;;;;;18.74;57.18;101449.41;7364523;19;20029;-61
2022/07/03 08:47:50;;;;;;;0.10;0.10;;;;;;;18.79;56.43;101452.69;7361924;19;20022;-59
2022/07/03 08:50:17;;;;;;;0.00;0.00;;;;;;;18.83;56.24;101453.44;7364326;19;20029;-61
2022/07/03 08:52:44;;;;;;;0.10;0.10;;;;;;;18.85;55.77;101449.78;7362909;19;20376;-60
2022/07/03 08:55:11;;;;;;;0.00;0.00;;;;;;;18.90;56.22;101447.78;7365796;19;20037;-59
2022/07/03 08:57:37;;;;;;;0.10;0.10;;;;;;;19.00;56.09;101444.72;7362991;19;20038;-59
2022/07/03 09:00:06;;;;;;;0.00;0.00;;;;;;;19.15;56.03;101454.59;7365381;19;20988;-62
2022/07/03 09:02:32;;;;;;;0.00;0.00;;;;;;;19.22;54.97;101447.25;7363267;19;20040;-64
2022/07/03 09:05:02;;;;;;;0.10;0.10;;;;;;;19.31;54.95;101458.28;7364204;19;20419;-63
2022/07/03 09:07:31;;;;;;;0.10;0.10;;;;;;;19.28;55.27;101454.91;7359351;19;20018;-62
2022/07/03 09:09:56;;;;;;;0.00;0.00;;;;;;;19.27;54.52;101448.75;7362522;19;20032;-62
2022/07/03 09:12:22;;;;;;;0.00;0.00;;;;;;;19.27;54.73;101454.03;7352245;19;20019;-63
2022/07/03 09:14:48;;;;;;;0.10;0.10;;;;;;;19.30;55.13;101447.72;7361516;19;20129;-63
2022/07/03 09:17:15;;;;;;;0.10;0.10;;;;;;;19.23;55.31;101418.03;7360713;19;20013;-62
2022/07/03 09:19:47;;;;;;;0.10;0.10;;;;;;;19.48;55.73;101435.41;7362183;19;20033;-63
2022/07/03 09:22:29;;;;;;;0.10;0.10;;;;;;;19.74;55.81;101458.88;7364680;19;20010;-62
2022/07/03 09:25:10;;;;;;;0.00;0.00;;;;;;;19.93;55.45;101459.69;7365214;19;20093;-63
2022/07/03 09:27:37;;;;;;;0.10;0.10;;;;;;;20.00;53.81;101465.53;7365199;19;20033;-63
2022/07/03 09:30:04;;;;;;;0.10;0.10;;;;;;;20.09;53.37;101459.78;7361341;19;20056;-63
2022/07/03 09:32:39;;;;;;;0.05;0.05;;;;;;;20.17;53.69;101464.69;7365818;19;20023;-63
2022/07/03 09:35:15;;;;;;;0.10;0.10;;;;;;;20.16;54.00;101455.88;7362033;19;20050;-63
2022/07/03 09:37:47;;;;;;;0.10;0.10;;;;;;;20.24;53.42;101471.41;7363630;19;20021;-64
2022/07/03 09:40:13;;;;;;;0.10;0.10;;;;;;;20.23;52.72;101490.91;7363933;19;20018;-63
2022/07/03 09:42:38;;;;;;;0.00;0.00;;;;;;;20.24;52.78;101497.94;7360053;19;20058;-63
2022/07/03 09:45:04;;;;;;;0.00;0.00;;;;;;;20.17;53.32;101499.16;7364780;19;20592;-63
2022/07/03 09:47:30;;;;;;;0.08;0.08;;;;;;;20.07;54.08;101500.56;7363967;19;20018;-63
2022/07/03 09:49:58;;;;;;;0.10;0.10;;;;;;;19.93;54.23;101507.41;7362296;19;20038;-64
2022/07/03 09:52:35;;;;;;;0.10;0.10;;;;;;;19.80;54.42;101506.28;7360673;19;20023;-62
2022/07/03 09:55:12;;;;;;;0.00;0.00;;;;;;;19.66;54.36;101498.13;7360462;19;20027;-63
2022/07/03 09:57:43;;;;;;;0.10;0.10;;;;;;;19.56;54.51;101502.13;7365685;19;20010;-64
2022/07/03 10:00:11;;;;;;;0.10;0.10;;;;;;;19.50;54.96;101500.63;7364654;19;20049;-63
2022/07/03 10:02:55;;;;;;;0.00;0.00;;;;;;;19.52;55.73;101500.56;7363684;19;20026;-62
2022/07/03 10:05:22;;;;;;;0.00;0.00;;;;;;;19.52;56.30;101497.91;7361858;19;20564;-62
2022/07/03 10:08:00;;;;;;;0.10;0.10;;;;;;;19.73;56.60;101498.72;7357438;19;20042;-63
2022/07/03 10:10:27;;;;;;;;;;;;;;;20.07;56.81;101500.56;7366076;19;20053;-63
2022/07/03 10:12:54;;;;;;;0.10;0.10;;;;;;;20.33;54.90;101500.13;7363876;19;20580;-63
2022/07/03 10:15:20;;;;;;;0.08;0.08;;;;;;;20.68;54.31;101497.47;7366613;19;20015;-64
2022/07/03 10:17:51;;;;;;;0.00;0.00;;;;;;;21.10;53.11;101488.19;7362024;19;20019;-64
2022/07/03 10:20:24;;;;;;;0.00;0.00;;;;;;;21.55;52.34;101491.94;7366095;19;20407;-63
2022/07/03 10:22:50;;;;;;;0.00;0.00;;;;;;;21.86;50.97;101491.91;7365311;19;20017;-64
2022/07/03 10:25:16;;;;;;;0.10;0.10;;;;;;;22.25;51.26;101501.19;7366004;19;20018;-63
2022/07/03 10:27:42;;;;;;;0.10;0.10;;;;;;;22.51;49.05;101500.53;7366382;19;20014;-62
2022/07/03 10:30:08;;;;;;;0.03;0.03;;;;;;;22.78;48.51;101497.13;7365427;19;26976;-64
2022/07/03 10:32:34;;;;;;;0.10;0.10;;;;;;;22.98;48.37;101491.47;7365451;19;20021;-63
2022/07/03 10:35:02;;;;;;;0.00;0.00;;;;;;;23.25;47.06;101504.00;7366536;19;21104;-64
2022/07/03 10:37:35;;;;;;;0.00;0.00;;;;;;;23.44;46.55;101493.03;7365883;19;20560;-64
2022/07/03 10:46:09;;;;;;;0.00;0.00;;;;;;;23.70;47.08;101504.72;7263571;19;2004486;-63
2022/07/03 10:49:03;;;;;;;0.00;0.00;;;;;;;23.69;47.53;101511.00;7262170;19;2004358;-63
2022/07/03 10:51:32;;;;;;;0.00;0.00;;;;;;;23.64;44.68;101510.44;7259888;19;2004583;-63
2022/07/03 10:54:16;;;;;;;0.00;0.00;;;;;;;23.76;46.72;101507.81;7363069;19;20013;-64
2022/07/03 10:57:03;;;;;;;0.03;0.03;;;;;;;23.92;46.92;101507.66;7364223;19;20338;-63
2022/07/03 10:59:44;;;;;;;0.00;0.00;;;;;;;24.10;45.68;101515.44;7363840;19;20065;-63
2022/07/03 11:02:21;;;;;;;0.00;0.00;;;;;;;24.30;46.07;101517.63;7363067;19;20025;-63
2022/07/03 11:04:59;;;;;;;0.00;0.00;;;;;;;24.42;44.99;101527.50;7362127;19;20025;-64
2022/07/03 11:07:34;;;;;;;0.00;0.00;;;;;;;24.46;43.89;101523.66;7364279;19;20674;-62
2022/07/03 11:10:14;;;;;;;0.00;0.00;;;;;;;24.49;45.04;101518.13;7360889;19;20752;-63
2022/07/03 11:12:59;;;;;;;0.00;0.00;;;;;;;24.57;45.45;101528.25;7363588;19;20018;-64
2022/07/03 11:15:43;;;;;;;0.10;0.10;;;;;;;24.70;44.62;101526.47;7362224;19;20014;-61
2022/07/03 11:18:16;;;;;;;0.10;0.10;;;;;;;24.77;41.93;101524.22;7362958;19;20021;-64
2022/07/03 11:20:41;;;;;;;0.00;0.00;;;;;;;24.91;40.82;101529.47;7362709;19;20043;-64
2022/07/03 11:23:10;;;;;;;0.05;0.05;;;;;;;24.90;40.84;101537.59;7360479;19;20019;-64
2022/07/03 11:25:40;;;;;;;0.10;0.10;;;;;;;24.93;41.99;101542.72;7361465;19;20014;-62
2022/07/03 11:28:06;;;;;;;0.10;0.10;;;;;;;24.86;41.59;101534.28;7360079;19;20002;-64
2022/07/03 11:30:32;;;;;;;0.10;0.10;;;;;;;24.97;40.55;101539.72;7364965;19;20074;-63
2022/07/03 11:33:00;;;;;;;0.10;0.10;;;;;;;24.93;40.59;101527.53;7364286;19;20010;-64
2022/07/03 11:35:51;;;;;;;0.10;0.10;;;;;;;25.20;43.15;101540.81;7362492;19;20025;-63
2022/07/03 11:38:29;;;;;;;0.10;0.10;;;;;;;25.16;40.10;101527.78;7363874;19;20090;-64
2022/07/03 11:40:56;;;;;;;0.05;0.05;;;;;;;25.28;40.79;101546.47;7363260;19;20015;-63
2022/07/03 11:43:22;;;;;;;0.10;0.10;;;;;;;25.26;41.56;101523.47;7361641;19;20039;-63
2022/07/03 11:45:49;;;;;;;0.10;0.10;;;;;;;25.48;41.09;101545.03;7361191;19;20014;-63